Orbital elements of COSMOS 970 DEB
| Launched | 20 December 1977 |
| Flight ended | – |
| Launch site | Tyuratam Missile and Space Center, Kazakhstan (Also known as Baikonur Cosmodrome) |
| Owner | Commonwealth of Independent States (former USSR) |
| NORAD ID | 10887 |
| Date fetched |
Epoch osculation |
Inc. [°] |
Ecc. | RA asc node [hr] |
Arg Peri. [°] |
Mean anom [°] |
Mean motion [rev/day] |
Abs. mag |
| Date fetched |
Epoch osculation |
Inc. [°] |
Ecc. | RA asc node [hr] |
Arg Peri. [°] |
Mean anom [°] |
Mean motion [rev/day] |
Abs. mag |
| 2026 May 03 17:57 | 2026 Apr 30 13:35:12 | 65.7424 | 0.01571 | 15.1605 | 2.8033 | 357.3876 | 13.83798 | – |
| 2026 May 02 17:57 | 2026 Apr 30 13:35:12 | 65.7424 | 0.01571 | 15.1605 | 2.8033 | 357.3876 | 13.83798 | – |
| 2026 May 01 17:56 | 2026 Apr 30 13:35:12 | 65.7424 | 0.01571 | 15.1605 | 2.8033 | 357.3876 | 13.83798 | – |
| 2026 Apr 30 17:56 | 2026 Apr 30 13:35:12 | 65.7424 | 0.01571 | 15.1605 | 2.8033 | 357.3876 | 13.83798 | – |
| 2026 Apr 29 17:57 | 2026 Apr 24 08:25:04 | 65.7425 | 0.01566 | 16.2036 | 5.8567 | 357.3876 | 13.83798 | – |
| 2026 Apr 28 17:56 | 2026 Apr 24 08:25:04 | 65.7425 | 0.01566 | 16.2036 | 5.8567 | 357.3876 | 13.83798 | – |
| 2026 Apr 27 17:58 | 2026 Apr 24 08:25:04 | 65.7425 | 0.01566 | 16.2036 | 5.8567 | 357.3876 | 13.83798 | – |
| 2026 Apr 26 17:58 | 2026 Apr 24 08:25:04 | 65.7425 | 0.01566 | 16.2036 | 5.8567 | 357.3876 | 13.83798 | – |
| 2026 Apr 25 17:58 | 2026 Apr 24 08:25:04 | 65.7425 | 0.01566 | 16.2036 | 5.8567 | 357.3876 | 13.83798 | – |
| 2026 Apr 24 17:59 | 2026 Apr 24 08:25:04 | 65.7425 | 0.01566 | 16.2036 | 5.8567 | 357.3876 | 13.83798 | – |
| 2026 Apr 23 17:57 | 2026 Apr 19 00:03:47 | 65.7421 | 0.01561 | 17.1012 | 8.4854 | 357.3876 | 13.83798 | – |
| 2026 Apr 22 17:57 | 2026 Apr 19 00:03:47 | 65.7421 | 0.01561 | 17.1012 | 8.4854 | 357.3876 | 13.83798 | – |
| 2026 Apr 21 17:57 | 2026 Apr 19 00:03:47 | 65.7421 | 0.01561 | 17.1012 | 8.4854 | 357.3876 | 13.83798 | – |
| 2026 Apr 20 17:57 | 2026 Apr 19 00:03:47 | 65.7421 | 0.01561 | 17.1012 | 8.4854 | 357.3876 | 13.83798 | – |
| 2026 Apr 19 17:58 | 2026 Apr 19 00:03:47 | 65.7421 | 0.01561 | 17.1012 | 8.4854 | 357.3876 | 13.83798 | – |
| 2026 Apr 18 17:56 | 2026 Apr 12 11:57:20 | 65.7419 | 0.01556 | 18.1930 | 11.6762 | 357.3876 | 13.83798 | – |
| 2026 Apr 16 17:57 | 2026 Apr 12 11:57:20 | 65.7419 | 0.01556 | 18.1930 | 11.6762 | 357.3876 | 13.83798 | – |
| 2026 Apr 14 17:57 | 2026 Apr 12 11:57:20 | 65.7419 | 0.01556 | 18.1930 | 11.6762 | 357.3876 | 13.83798 | – |
| 2026 Apr 13 17:57 | 2026 Apr 12 11:57:20 | 65.7419 | 0.01556 | 18.1930 | 11.6762 | 357.3876 | 13.83798 | – |
| 2026 Apr 12 17:57 | 2026 Apr 08 14:17:27 | 65.7417 | 0.01554 | 18.8480 | 13.5862 | 357.3876 | 13.83798 | – |
| 2026 Apr 11 17:57 | 2026 Apr 08 14:17:27 | 65.7417 | 0.01554 | 18.8480 | 13.5862 | 357.3876 | 13.83798 | – |
| 2026 Apr 10 17:58 | 2026 Apr 08 14:17:27 | 65.7417 | 0.01554 | 18.8480 | 13.5862 | 357.3876 | 13.83798 | – |
| 2026 Apr 09 18:01 | 2026 Apr 08 14:17:27 | 65.7417 | 0.01554 | 18.8480 | 13.5862 | 357.3876 | 13.83798 | – |
| 2026 Apr 08 17:57 | 2026 Apr 08 14:17:27 | 65.7417 | 0.01554 | 18.8480 | 13.5862 | 357.3876 | 13.83798 | – |
| 2026 Apr 07 17:57 | 2026 Apr 01 20:58:45 | 65.7424 | 0.01549 | 19.9761 | 16.8443 | 357.3876 | 13.83798 | – |
| 2026 Apr 06 17:57 | 2026 Apr 01 20:58:45 | 65.7424 | 0.01549 | 19.9761 | 16.8443 | 357.3876 | 13.83798 | – |